Portada
METAR-TAF:

METAR-TAF

Aeroports :

Aeroport Internacional de Dallas/Fort Worth

Dallas-Fort Worth, Texas, Estats Units d'Amèrica

latitud: 32-53-49N, longitud: 097-01-19W, altitud: 183 m

Observació

L'informe es va fer fa 51 minuts, a les 01:53 UTC
Vent calma
Temperatura 9°C
Humitat 46%
Pressió 1025 hPa
Visibilitat: 16.1 km
Cel clar

METAR: KDFW 160153Z 00000KT 10SM CLR 09/M02 A3027 RMK AO2 SLP251 T00891017 $

Hora: 20:44 (02:44 UTC)

Pronòstic

L'informe es va fer fa 3 hores i 14 minuts, a les 23:30 UTC
Pronòstic vàlid del 16 a les 00 UTC al 17 a les 06 UTC
Vent 4 kt del Nord-Est
Visibilitat: 10 km
Cel clar
A partir de les 16 a les 0400 UTC
Vent 4 kt del Sud/Sud-Est
Visibilitat: 10 km
Escasses núvols a una alçada de 25000 ft
A partir de les 16 a les 1700 UTC
Vent 11 kt del Sud/Sud-Est
Visibilitat: 10 km
Núvols disperses a una alçada de 25000 ft

TAF: KDFW 152330Z 1600/1706 04004KT P6SM SKC FM160400 15004KT P6SM FEW250 FM161700 16011KT P6SM SCT250

Observacions i pronòstics meteorològics de més de 4000 aeroports (METAR i TAF).

Les estacions disponibles són els punts grocs i vermells al mapa.

Posi el ratolí al punt desitjat per veure el nom de l'estació.

Feu clic per veure les observacions i els pronòstics meteorològics.

Per canviar el mapa: feu clic els botons verds amb una creu de color negre per apropar; al botó verd amb un guió per allunyar la imatge; o en les fletxes verdes per a mapes adjacents.


METAR-TAF: